sensor_id;sensor_type;location;lat;lon;timestamp;temperature;humidity
18287;DHT22;9269;50.838;12.094;2022-09-09T00:01:51;19.50;50.70
18287;DHT22;9269;50.838;12.094;2022-09-09T00:04:26;19.50;51.10
18287;DHT22;9269;50.838;12.094;2022-09-09T00:07:03;19.50;51.40
18287;DHT22;9269;50.838;12.094;2022-09-09T00:09:40;19.40;51.40
18287;DHT22;9269;50.838;12.094;2022-09-09T00:12:15;19.50;51.40
18287;DHT22;9269;50.838;12.094;2022-09-09T00:14:50;19.40;51.40
18287;DHT22;9269;50.838;12.094;2022-09-09T00:17:31;19.40;51.60
18287;DHT22;9269;50.838;12.094;2022-09-09T00:20:10;19.40;51.70
18287;DHT22;9269;50.838;12.094;2022-09-09T00:22:44;19.40;51.70
18287;DHT22;9269;50.838;12.094;2022-09-09T00:25:19;19.50;52.00
18287;DHT22;9269;50.838;12.094;2022-09-09T00:27:51;19.40;52.40
18287;DHT22;9269;50.838;12.094;2022-09-09T00:30:24;19.40;52.20
18287;DHT22;9269;50.838;12.094;2022-09-09T00:32:59;19.30;52.10
18287;DHT22;9269;50.838;12.094;2022-09-09T00:35:31;19.40;52.10
18287;DHT22;9269;50.838;12.094;2022-09-09T00:38:09;19.30;52.10
18287;DHT22;9269;50.838;12.094;2022-09-09T00:40:44;19.30;51.70
18287;DHT22;9269;50.838;12.094;2022-09-09T00:43:26;19.30;52.10
18287;DHT22;9269;50.838;12.094;2022-09-09T00:46:14;19.20;52.20
18287;DHT22;9269;50.838;12.094;2022-09-09T00:49:02;19.30;52.30
18287;DHT22;9269;50.838;12.094;2022-09-09T00:51:43;19.30;52.10
18287;DHT22;9269;50.838;12.094;2022-09-09T00:54:36;19.30;52.10
18287;DHT22;9269;50.838;12.094;2022-09-09T00:57:14;19.20;52.10
18287;DHT22;9269;50.838;12.094;2022-09-09T00:59:52;19.20;51.50
18287;DHT22;9269;50.838;12.094;2022-09-09T01:02:28;19.10;51.00
18287;DHT22;9269;50.838;12.094;2022-09-09T01:05:13;19.20;51.30
18287;DHT22;9269;50.838;12.094;2022-09-09T01:07:49;19.20;51.60
18287;DHT22;9269;50.838;12.094;2022-09-09T01:10:40;19.20;51.80
18287;DHT22;9269;50.838;12.094;2022-09-09T01:13:16;19.20;51.90
18287;DHT22;9269;50.838;12.094;2022-09-09T01:15:48;19.20;52.20
18287;DHT22;9269;50.838;12.094;2022-09-09T01:18:18;19.20;51.90
18287;DHT22;9269;50.838;12.094;2022-09-09T01:20:56;19.20;51.80
18287;DHT22;9269;50.838;12.094;2022-09-09T01:23:43;19.10;51.80
18287;DHT22;9269;50.838;12.094;2022-09-09T01:26:25;19.10;51.70
18287;DHT22;9269;50.838;12.094;2022-09-09T01:28:54;19.10;51.30
18287;DHT22;9269;50.838;12.094;2022-09-09T01:31:27;19.10;51.80
18287;DHT22;9269;50.838;12.094;2022-09-09T01:33:57;19.10;52.00
18287;DHT22;9269;50.838;12.094;2022-09-09T01:36:31;19.10;51.70
18287;DHT22;9269;50.838;12.094;2022-09-09T01:39:09;19.10;51.90
18287;DHT22;9269;50.838;12.094;2022-09-09T01:41:40;19.00;51.50
18287;DHT22;9269;50.838;12.094;2022-09-09T01:44:09;19.00;52.00
18287;DHT22;9269;50.838;12.094;2022-09-09T01:46:38;19.00;51.50
18287;DHT22;9269;50.838;12.094;2022-09-09T01:49:08;19.00;51.30
18287;DHT22;9269;50.838;12.094;2022-09-09T01:51:39;18.90;51.60
18287;DHT22;9269;50.838;12.094;2022-09-09T01:54:10;18.90;51.10
18287;DHT22;9269;50.838;12.094;2022-09-09T01:56:47;19.00;51.40
18287;DHT22;9269;50.838;12.094;2022-09-09T01:59:41;18.90;51.50
18287;DHT22;9269;50.838;12.094;2022-09-09T02:02:25;18.90;51.10
18287;DHT22;9269;50.838;12.094;2022-09-09T02:05:10;18.80;51.30
18287;DHT22;9269;50.838;12.094;2022-09-09T02:07:42;18.90;51.20
18287;DHT22;9269;50.838;12.094;2022-09-09T02:10:20;18.80;51.10
18287;DHT22;9269;50.838;12.094;2022-09-09T02:13:02;18.90;51.50
18287;DHT22;9269;50.838;12.094;2022-09-09T02:15:35;18.90;51.40
18287;DHT22;9269;50.838;12.094;2022-09-09T02:18:08;18.80;51.40
18287;DHT22;9269;50.838;12.094;2022-09-09T02:20:39;18.80;51.50
18287;DHT22;9269;50.838;12.094;2022-09-09T02:23:08;18.80;50.80
18287;DHT22;9269;50.838;12.094;2022-09-09T02:25:40;18.80;50.90
18287;DHT22;9269;50.838;12.094;2022-09-09T02:31:29;18.70;50.70
18287;DHT22;9269;50.838;12.094;2022-09-09T02:34:01;18.70;50.80
18287;DHT22;9269;50.838;12.094;2022-09-09T02:36:50;18.60;51.00
18287;DHT22;9269;50.838;12.094;2022-09-09T02:39:20;18.70;50.90
18287;DHT22;9269;50.838;12.094;2022-09-09T02:41:49;18.60;50.80
18287;DHT22;9269;50.838;12.094;2022-09-09T02:44:19;18.60;51.00
18287;DHT22;9269;50.838;12.094;2022-09-09T02:47:07;18.60;50.80
18287;DHT22;9269;50.838;12.094;2022-09-09T02:49:47;18.60;50.60
18287;DHT22;9269;50.838;12.094;2022-09-09T02:52:21;18.60;50.60
18287;DHT22;9269;50.838;12.094;2022-09-09T02:54:59;18.70;50.90
18287;DHT22;9269;50.838;12.094;2022-09-09T02:57:34;18.60;50.80
18287;DHT22;9269;50.838;12.094;2022-09-09T03:00:04;18.50;51.10
18287;DHT22;9269;50.838;12.094;2022-09-09T03:02:34;18.60;51.30
18287;DHT22;9269;50.838;12.094;2022-09-09T03:05:04;18.70;51.40
18287;DHT22;9269;50.838;12.094;2022-09-09T03:07:32;18.60;51.50
18287;DHT22;9269;50.838;12.094;2022-09-09T03:10:02;18.60;51.10
18287;DHT22;9269;50.838;12.094;2022-09-09T03:12:32;18.50;51.40
18287;DHT22;9269;50.838;12.094;2022-09-09T03:15:02;18.60;51.10
18287;DHT22;9269;50.838;12.094;2022-09-09T03:17:31;18.60;51.10
18287;DHT22;9269;50.838;12.094;2022-09-09T03:20:03;18.50;51.30
18287;DHT22;9269;50.838;12.094;2022-09-09T03:22:31;18.50;51.70
18287;DHT22;9269;50.838;12.094;2022-09-09T03:25:00;18.50;51.40
18287;DHT22;9269;50.838;12.094;2022-09-09T03:27:29;18.50;51.60
18287;DHT22;9269;50.838;12.094;2022-09-09T03:29:58;18.50;51.40
18287;DHT22;9269;50.838;12.094;2022-09-09T03:32:31;18.60;51.20
18287;DHT22;9269;50.838;12.094;2022-09-09T03:35:02;18.50;51.10
18287;DHT22;9269;50.838;12.094;2022-09-09T03:37:30;18.50;51.20
18287;DHT22;9269;50.838;12.094;2022-09-09T03:39:59;18.50;51.50
18287;DHT22;9269;50.838;12.094;2022-09-09T03:42:41;18.50;51.30
18287;DHT22;9269;50.838;12.094;2022-09-09T03:45:29;18.50;51.10
18287;DHT22;9269;50.838;12.094;2022-09-09T03:48:01;18.40;51.10
18287;DHT22;9269;50.838;12.094;2022-09-09T03:50:31;18.40;50.80
18287;DHT22;9269;50.838;12.094;2022-09-09T03:53:00;18.40;51.10
18287;DHT22;9269;50.838;12.094;2022-09-09T03:55:28;18.40;51.30
18287;DHT22;9269;50.838;12.094;2022-09-09T03:57:57;18.40;51.00
18287;DHT22;9269;50.838;12.094;2022-09-09T04:00:28;18.40;51.30
18287;DHT22;9269;50.838;12.094;2022-09-09T04:03:04;18.50;50.90
18287;DHT22;9269;50.838;12.094;2022-09-09T04:05:34;18.40;51.10
18287;DHT22;9269;50.838;12.094;2022-09-09T04:08:06;18.40;51.40
18287;DHT22;9269;50.838;12.094;2022-09-09T04:10:35;18.40;51.10
18287;DHT22;9269;50.838;12.094;2022-09-09T04:13:04;18.40;51.10
18287;DHT22;9269;50.838;12.094;2022-09-09T04:15:33;18.40;51.20
18287;DHT22;9269;50.838;12.094;2022-09-09T04:18:02;18.40;51.40
18287;DHT22;9269;50.838;12.094;2022-09-09T04:20:34;18.40;51.30
18287;DHT22;9269;50.838;12.094;2022-09-09T04:23:09;18.40;51.30
18287;DHT22;9269;50.838;12.094;2022-09-09T04:25:37;18.40;50.90
18287;DHT22;9269;50.838;12.094;2022-09-09T04:28:08;18.40;51.30
18287;DHT22;9269;50.838;12.094;2022-09-09T04:30:50;18.40;51.30
18287;DHT22;9269;50.838;12.094;2022-09-09T04:33:39;18.40;51.10
18287;DHT22;9269;50.838;12.094;2022-09-09T04:36:28;18.40;51.10
18287;DHT22;9269;50.838;12.094;2022-09-09T04:39:16;18.40;51.40
18287;DHT22;9269;50.838;12.094;2022-09-09T04:42:04;18.40;51.10
18287;DHT22;9269;50.838;12.094;2022-09-09T04:44:34;18.50;50.80
18287;DHT22;9269;50.838;12.094;2022-09-09T04:47:10;18.40;51.00
18287;DHT22;9269;50.838;12.094;2022-09-09T04:49:40;18.50;51.20
18287;DHT22;9269;50.838;12.094;2022-09-09T04:52:11;18.50;51.50
18287;DHT22;9269;50.838;12.094;2022-09-09T04:54:39;18.50;51.30
18287;DHT22;9269;50.838;12.094;2022-09-09T04:57:10;18.60;51.60
18287;DHT22;9269;50.838;12.094;2022-09-09T04:59:51;18.60;51.90
18287;DHT22;9269;50.838;12.094;2022-09-09T05:02:20;18.60;52.10
18287;DHT22;9269;50.838;12.094;2022-09-09T05:04:49;18.60;52.00
18287;DHT22;9269;50.838;12.094;2022-09-09T05:07:19;18.60;52.30
18287;DHT22;9269;50.838;12.094;2022-09-09T05:09:55;18.70;52.30
18287;DHT22;9269;50.838;12.094;2022-09-09T05:12:24;18.60;52.40
18287;DHT22;9269;50.838;12.094;2022-09-09T05:14:54;18.70;52.60
18287;DHT22;9269;50.838;12.094;2022-09-09T05:17:23;18.60;53.00
18287;DHT22;9269;50.838;12.094;2022-09-09T05:20:08;18.70;52.90
18287;DHT22;9269;50.838;12.094;2022-09-09T05:23:04;18.60;52.90
18287;DHT22;9269;50.838;12.094;2022-09-09T05:25:56;18.70;52.50
18287;DHT22;9269;50.838;12.094;2022-09-09T05:28:26;18.60;52.60
18287;DHT22;9269;50.838;12.094;2022-09-09T05:30:57;18.70;52.40
18287;DHT22;9269;50.838;12.094;2022-09-09T05:33:48;18.70;52.30
18287;DHT22;9269;50.838;12.094;2022-09-09T05:36:22;18.70;52.10
18287;DHT22;9269;50.838;12.094;2022-09-09T05:39:08;18.80;52.10
18287;DHT22;9269;50.838;12.094;2022-09-09T05:41:39;18.80;52.00
18287;DHT22;9269;50.838;12.094;2022-09-09T05:44:09;18.80;52.20
18287;DHT22;9269;50.838;12.094;2022-09-09T05:46:57;18.80;52.00
18287;DHT22;9269;50.838;12.094;2022-09-09T05:49:45;18.80;52.10
18287;DHT22;9269;50.838;12.094;2022-09-09T05:52:14;18.80;52.10
18287;DHT22;9269;50.838;12.094;2022-09-09T05:54:44;18.80;52.00
18287;DHT22;9269;50.838;12.094;2022-09-09T05:57:32;18.90;51.50
18287;DHT22;9269;50.838;12.094;2022-09-09T06:00:20;18.90;51.70
18287;DHT22;9269;50.838;12.094;2022-09-09T06:03:10;18.90;51.80
18287;DHT22;9269;50.838;12.094;2022-09-09T06:05:59;18.90;51.50
18287;DHT22;9269;50.838;12.094;2022-09-09T06:08:50;19.00;51.50
18287;DHT22;9269;50.838;12.094;2022-09-09T06:11:40;19.00;51.70
18287;DHT22;9269;50.838;12.094;2022-09-09T06:14:28;19.00;51.70
18287;DHT22;9269;50.838;12.094;2022-09-09T06:17:15;19.10;51.70
18287;DHT22;9269;50.838;12.094;2022-09-09T06:20:04;19.10;51.50
18287;DHT22;9269;50.838;12.094;2022-09-09T06:22:52;19.10;51.40
18287;DHT22;9269;50.838;12.094;2022-09-09T06:25:40;19.10;51.30
18287;DHT22;9269;50.838;12.094;2022-09-09T06:28:29;19.10;51.40
18287;DHT22;9269;50.838;12.094;2022-09-09T06:30:58;19.20;51.40
18287;DHT22;9269;50.838;12.094;2022-09-09T06:33:30;19.20;51.70
18287;DHT22;9269;50.838;12.094;2022-09-09T06:36:19;19.20;51.60
18287;DHT22;9269;50.838;12.094;2022-09-09T06:38:54;19.30;51.30
18287;DHT22;9269;50.838;12.094;2022-09-09T06:41:25;19.30;51.40
18287;DHT22;9269;50.838;12.094;2022-09-09T06:43:56;19.40;51.10
18287;DHT22;9269;50.838;12.094;2022-09-09T06:46:28;19.40;51.60
18287;DHT22;9269;50.838;12.094;2022-09-09T06:49:09;19.40;51.40
18287;DHT22;9269;50.838;12.094;2022-09-09T06:51:57;19.40;51.60
18287;DHT22;9269;50.838;12.094;2022-09-09T06:54:45;19.40;51.40
18287;DHT22;9269;50.838;12.094;2022-09-09T06:57:32;19.40;51.60
18287;DHT22;9269;50.838;12.094;2022-09-09T07:00:10;19.40;51.30
18287;DHT22;9269;50.838;12.094;2022-09-09T07:02:39;19.40;51.60
18287;DHT22;9269;50.838;12.094;2022-09-09T07:05:08;19.40;51.40
18287;DHT22;9269;50.838;12.094;2022-09-09T07:07:36;19.50;51.40
18287;DHT22;9269;50.838;12.094;2022-09-09T07:10:25;19.50;51.60
18287;DHT22;9269;50.838;12.094;2022-09-09T07:13:05;19.60;51.30
18287;DHT22;9269;50.838;12.094;2022-09-09T07:15:48;19.50;51.50
18287;DHT22;9269;50.838;12.094;2022-09-09T07:18:35;19.60;51.40
18287;DHT22;9269;50.838;12.094;2022-09-09T07:21:25;19.60;51.30
18287;DHT22;9269;50.838;12.094;2022-09-09T07:23:56;19.80;51.40
18287;DHT22;9269;50.838;12.094;2022-09-09T07:26:26;19.90;51.40
18287;DHT22;9269;50.838;12.094;2022-09-09T07:28:56;20.00;51.20
18287;DHT22;9269;50.838;12.094;2022-09-09T07:31:28;20.10;51.60
18287;DHT22;9269;50.838;12.094;2022-09-09T07:33:59;20.20;51.60
18287;DHT22;9269;50.838;12.094;2022-09-09T07:36:31;20.20;51.40
18287;DHT22;9269;50.838;12.094;2022-09-09T07:39:03;20.20;51.50
18287;DHT22;9269;50.838;12.094;2022-09-09T07:41:34;20.20;51.50
18287;DHT22;9269;50.838;12.094;2022-09-09T07:44:05;20.30;51.90
18287;DHT22;9269;50.838;12.094;2022-09-09T07:46:43;20.30;51.70
18287;DHT22;9269;50.838;12.094;2022-09-09T07:49:13;20.20;51.70
18287;DHT22;9269;50.838;12.094;2022-09-09T07:51:46;20.40;51.90
18287;DHT22;9269;50.838;12.094;2022-09-09T07:54:18;20.40;51.80
18287;DHT22;9269;50.838;12.094;2022-09-09T07:56:52;20.60;51.60
18287;DHT22;9269;50.838;12.094;2022-09-09T07:59:24;20.60;51.70
18287;DHT22;9269;50.838;12.094;2022-09-09T08:02:13;20.60;51.40
18287;DHT22;9269;50.838;12.094;2022-09-09T08:04:43;20.80;51.70
18287;DHT22;9269;50.838;12.094;2022-09-09T08:07:12;20.90;50.00
18287;DHT22;9269;50.838;12.094;2022-09-09T08:09:43;21.00;50.20
18287;DHT22;9269;50.838;12.094;2022-09-09T08:12:12;21.20;50.00
18287;DHT22;9269;50.838;12.094;2022-09-09T08:14:42;21.20;50.30
18287;DHT22;9269;50.838;12.094;2022-09-09T08:17:12;21.20;50.00
18287;DHT22;9269;50.838;12.094;2022-09-09T08:19:41;21.20;50.00
18287;DHT22;9269;50.838;12.094;2022-09-09T08:22:10;21.30;50.10
18287;DHT22;9269;50.838;12.094;2022-09-09T08:24:38;21.30;49.70
18287;DHT22;9269;50.838;12.094;2022-09-09T08:27:08;21.30;49.80
18287;DHT22;9269;50.838;12.094;2022-09-09T08:29:43;21.40;49.70
18287;DHT22;9269;50.838;12.094;2022-09-09T08:32:13;21.40;49.80
18287;DHT22;9269;50.838;12.094;2022-09-09T08:34:41;21.50;49.50
18287;DHT22;9269;50.838;12.094;2022-09-09T08:37:12;21.70;49.20
18287;DHT22;9269;50.838;12.094;2022-09-09T08:40:01;21.80;49.10
18287;DHT22;9269;50.838;12.094;2022-09-09T08:42:38;22.00;49.10
18287;DHT22;9269;50.838;12.094;2022-09-09T08:45:33;22.00;48.60
18287;DHT22;9269;50.838;12.094;2022-09-09T08:48:32;22.20;48.60
18287;DHT22;9269;50.838;12.094;2022-09-09T08:51:06;22.50;48.60
18287;DHT22;9269;50.838;12.094;2022-09-09T08:53:51;22.60;48.40
18287;DHT22;9269;50.838;12.094;2022-09-09T08:56:45;22.80;47.90
18287;DHT22;9269;50.838;12.094;2022-09-09T08:59:17;23.00;47.50
18287;DHT22;9269;50.838;12.094;2022-09-09T09:02:05;23.10;47.20
18287;DHT22;9269;50.838;12.094;2022-09-09T09:04:58;23.50;47.00
18287;DHT22;9269;50.838;12.094;2022-09-09T09:07:39;23.70;45.30
18287;DHT22;9269;50.838;12.094;2022-09-09T09:10:26;23.90;45.00
18287;DHT22;9269;50.838;12.094;2022-09-09T09:13:18;24.20;44.80
18287;DHT22;9269;50.838;12.094;2022-09-09T09:15:52;24.40;44.30
18287;DHT22;9269;50.838;12.094;2022-09-09T09:18:22;24.60;43.50
18287;DHT22;9269;50.838;12.094;2022-09-09T09:21:03;24.70;42.90
18287;DHT22;9269;50.838;12.094;2022-09-09T09:23:40;24.90;42.30
18287;DHT22;9269;50.838;12.094;2022-09-09T09:26:11;25.00;42.90
18287;DHT22;9269;50.838;12.094;2022-09-09T09:28:40;25.20;42.20
18287;DHT22;9269;50.838;12.094;2022-09-09T09:31:11;25.20;42.40
18287;DHT22;9269;50.838;12.094;2022-09-09T09:33:48;25.40;42.50
18287;DHT22;9269;50.838;12.094;2022-09-09T09:36:24;25.50;42.50
18287;DHT22;9269;50.838;12.094;2022-09-09T09:38:56;25.70;41.90
18287;DHT22;9269;50.838;12.094;2022-09-09T09:41:52;25.80;41.10
18287;DHT22;9269;50.838;12.094;2022-09-09T09:44:24;26.00;40.90
18287;DHT22;9269;50.838;12.094;2022-09-09T09:47:06;26.20;40.80
18287;DHT22;9269;50.838;12.094;2022-09-09T09:49:36;26.30;40.60
18287;DHT22;9269;50.838;12.094;2022-09-09T09:52:12;26.30;41.30
18287;DHT22;9269;50.838;12.094;2022-09-09T09:54:44;26.40;39.70
18287;DHT22;9269;50.838;12.094;2022-09-09T09:57:24;26.50;39.60
18287;DHT22;9269;50.838;12.094;2022-09-09T10:00:04;26.30;39.00
18287;DHT22;9269;50.838;12.094;2022-09-09T10:02:43;26.10;38.70
18287;DHT22;9269;50.838;12.094;2022-09-09T10:05:21;26.00;39.00
18287;DHT22;9269;50.838;12.094;2022-09-09T10:08:08;25.90;38.90
18287;DHT22;9269;50.838;12.094;2022-09-09T10:10:51;25.90;38.90
18287;DHT22;9269;50.838;12.094;2022-09-09T10:13:27;25.70;38.50
18287;DHT22;9269;50.838;12.094;2022-09-09T10:16:13;25.80;38.60
18287;DHT22;9269;50.838;12.094;2022-09-09T10:19:00;25.80;38.60
18287;DHT22;9269;50.838;12.094;2022-09-09T10:21:56;25.90;38.20
18287;DHT22;9269;50.838;12.094;2022-09-09T10:24:47;25.80;38.20
18287;DHT22;9269;50.838;12.094;2022-09-09T10:27:21;25.90;38.20
18287;DHT22;9269;50.838;12.094;2022-09-09T10:30:02;25.90;37.80
18287;DHT22;9269;50.838;12.094;2022-09-09T10:32:40;26.10;37.80
18287;DHT22;9269;50.838;12.094;2022-09-09T10:35:12;26.10;37.80
18287;DHT22;9269;50.838;12.094;2022-09-09T10:37:58;26.10;37.90
18287;DHT22;9269;50.838;12.094;2022-09-09T10:40:37;26.20;37.70
18287;DHT22;9269;50.838;12.094;2022-09-09T10:43:15;26.40;36.30
18287;DHT22;9269;50.838;12.094;2022-09-09T10:45:57;26.60;35.80
18287;DHT22;9269;50.838;12.094;2022-09-09T10:48:34;26.80;35.70
18287;DHT22;9269;50.838;12.094;2022-09-09T10:51:18;27.00;35.30
18287;DHT22;9269;50.838;12.094;2022-09-09T10:53:58;27.10;34.90
18287;DHT22;9269;50.838;12.094;2022-09-09T10:56:34;27.20;34.20
18287;DHT22;9269;50.838;12.094;2022-09-09T10:59:09;27.10;33.90
18287;DHT22;9269;50.838;12.094;2022-09-09T11:01:44;27.10;33.90
18287;DHT22;9269;50.838;12.094;2022-09-09T11:04:19;27.20;34.00
18287;DHT22;9269;50.838;12.094;2022-09-09T11:06:55;27.30;33.30
18287;DHT22;9269;50.838;12.094;2022-09-09T11:09:26;27.60;32.80
18287;DHT22;9269;50.838;12.094;2022-09-09T11:11:58;27.60;32.60
18287;DHT22;9269;50.838;12.094;2022-09-09T11:14:35;27.70;32.90
18287;DHT22;9269;50.838;12.094;2022-09-09T11:17:10;27.70;32.70
18287;DHT22;9269;50.838;12.094;2022-09-09T11:19:44;27.80;32.60
18287;DHT22;9269;50.838;12.094;2022-09-09T11:22:26;27.90;32.70
18287;DHT22;9269;50.838;12.094;2022-09-09T11:24:59;28.00;32.50
18287;DHT22;9269;50.838;12.094;2022-09-09T11:27:35;28.00;32.80
18287;DHT22;9269;50.838;12.094;2022-09-09T11:30:19;28.20;32.80
18287;DHT22;9269;50.838;12.094;2022-09-09T11:33:48;28.20;32.20
18287;DHT22;9269;50.838;12.094;2022-09-09T11:36:35;28.30;32.60
18287;DHT22;9269;50.838;12.094;2022-09-09T11:39:30;28.50;32.10
18287;DHT22;9269;50.838;12.094;2022-09-09T11:42:07;28.50;31.00
18287;DHT22;9269;50.838;12.094;2022-09-09T11:44:39;28.50;30.70
18287;DHT22;9269;50.838;12.094;2022-09-09T11:47:23;28.60;31.10
18287;DHT22;9269;50.838;12.094;2022-09-09T11:50:09;28.60;29.90
18287;DHT22;9269;50.838;12.094;2022-09-09T11:52:40;28.50;30.30
18287;DHT22;9269;50.838;12.094;2022-09-09T11:55:25;28.50;30.40
18287;DHT22;9269;50.838;12.094;2022-09-09T11:57:57;28.30;30.50
18287;DHT22;9269;50.838;12.094;2022-09-09T12:00:36;28.40;30.20
18287;DHT22;9269;50.838;12.094;2022-09-09T12:03:08;28.40;30.60
18287;DHT22;9269;50.838;12.094;2022-09-09T12:05:57;28.60;30.40
18287;DHT22;9269;50.838;12.094;2022-09-09T12:08:27;28.70;30.30
18287;DHT22;9269;50.838;12.094;2022-09-09T12:10:58;28.80;29.40
18287;DHT22;9269;50.838;12.094;2022-09-09T12:13:29;28.70;29.10
18287;DHT22;9269;50.838;12.094;2022-09-09T12:16:00;28.60;29.50
18287;DHT22;9269;50.838;12.094;2022-09-09T12:18:33;28.60;30.20
18287;DHT22;9269;50.838;12.094;2022-09-09T12:21:06;28.50;29.50
18287;DHT22;9269;50.838;12.094;2022-09-09T12:23:40;28.50;29.80
18287;DHT22;9269;50.838;12.094;2022-09-09T12:26:28;28.50;30.50
18287;DHT22;9269;50.838;12.094;2022-09-09T12:29:09;28.60;30.00
18287;DHT22;9269;50.838;12.094;2022-09-09T12:31:46;28.90;30.10
18287;DHT22;9269;50.838;12.094;2022-09-09T12:34:19;29.00;29.20
18287;DHT22;9269;50.838;12.094;2022-09-09T12:36:55;29.10;28.70
18287;DHT22;9269;50.838;12.094;2022-09-09T12:39:34;29.30;28.10
18287;DHT22;9269;50.838;12.094;2022-09-09T12:42:04;29.30;27.10
18287;DHT22;9269;50.838;12.094;2022-09-09T12:44:33;29.20;26.90
18287;DHT22;9269;50.838;12.094;2022-09-09T12:47:03;29.20;27.70
18287;DHT22;9269;50.838;12.094;2022-09-09T12:49:34;29.10;27.80
18287;DHT22;9269;50.838;12.094;2022-09-09T12:52:07;29.20;26.90
18287;DHT22;9269;50.838;12.094;2022-09-09T12:54:44;29.10;26.80
18287;DHT22;9269;50.838;12.094;2022-09-09T12:57:14;28.90;26.60
18287;DHT22;9269;50.838;12.094;2022-09-09T12:59:44;28.90;26.30
18287;DHT22;9269;50.838;12.094;2022-09-09T13:02:23;28.70;27.80
18287;DHT22;9269;50.838;12.094;2022-09-09T13:04:53;28.70;27.90
18287;DHT22;9269;50.838;12.094;2022-09-09T13:07:25;28.70;28.10
18287;DHT22;9269;50.838;12.094;2022-09-09T13:09:57;28.60;28.20
18287;DHT22;9269;50.838;12.094;2022-09-09T13:12:26;28.50;27.20
18287;DHT22;9269;50.838;12.094;2022-09-09T13:14:56;28.20;27.30
18287;DHT22;9269;50.838;12.094;2022-09-09T13:17:50;28.30;27.30
18287;DHT22;9269;50.838;12.094;2022-09-09T13:20:20;28.10;27.30
18287;DHT22;9269;50.838;12.094;2022-09-09T13:22:50;28.10;27.20
18287;DHT22;9269;50.838;12.094;2022-09-09T13:25:23;28.10;27.30
18287;DHT22;9269;50.838;12.094;2022-09-09T13:27:59;28.10;26.70
18287;DHT22;9269;50.838;12.094;2022-09-09T13:30:33;28.20;26.60
18287;DHT22;9269;50.838;12.094;2022-09-09T13:33:21;28.30;26.80
18287;DHT22;9269;50.838;12.094;2022-09-09T13:35:53;28.20;26.80
18287;DHT22;9269;50.838;12.094;2022-09-09T13:38:23;28.20;26.70
18287;DHT22;9269;50.838;12.094;2022-09-09T13:40:55;28.10;26.50
18287;DHT22;9269;50.838;12.094;2022-09-09T13:43:26;28.10;26.50
18287;DHT22;9269;50.838;12.094;2022-09-09T13:45:58;27.80;27.00
18287;DHT22;9269;50.838;12.094;2022-09-09T13:48:29;27.70;27.10
18287;DHT22;9269;50.838;12.094;2022-09-09T13:51:02;27.60;27.20
18287;DHT22;9269;50.838;12.094;2022-09-09T13:53:32;27.50;27.30
18287;DHT22;9269;50.838;12.094;2022-09-09T13:56:01;27.30;26.90
18287;DHT22;9269;50.838;12.094;2022-09-09T13:58:32;27.30;27.20
18287;DHT22;9269;50.838;12.094;2022-09-09T14:01:04;27.20;27.50
18287;DHT22;9269;50.838;12.094;2022-09-09T14:03:34;27.00;27.50
18287;DHT22;9269;50.838;12.094;2022-09-09T14:06:05;27.00;27.70
18287;DHT22;9269;50.838;12.094;2022-09-09T14:08:34;26.80;27.80
18287;DHT22;9269;50.838;12.094;2022-09-09T14:11:04;26.70;27.50
18287;DHT22;9269;50.838;12.094;2022-09-09T14:13:33;26.60;27.90
18287;DHT22;9269;50.838;12.094;2022-09-09T14:16:03;26.60;27.80
18287;DHT22;9269;50.838;12.094;2022-09-09T14:18:33;26.50;28.00
18287;DHT22;9269;50.838;12.094;2022-09-09T14:21:07;26.30;29.10
18287;DHT22;9269;50.838;12.094;2022-09-09T14:23:37;26.30;28.80
18287;DHT22;9269;50.838;12.094;2022-09-09T14:26:06;26.20;29.40
18287;DHT22;9269;50.838;12.094;2022-09-09T14:28:36;26.20;29.20
18287;DHT22;9269;50.838;12.094;2022-09-09T14:31:22;26.00;29.80
18287;DHT22;9269;50.838;12.094;2022-09-09T14:33:53;26.20;29.20
18287;DHT22;9269;50.838;12.094;2022-09-09T14:36:23;26.10;28.70
18287;DHT22;9269;50.838;12.094;2022-09-09T14:38:54;26.20;29.00
18287;DHT22;9269;50.838;12.094;2022-09-09T14:41:25;26.30;29.30
18287;DHT22;9269;50.838;12.094;2022-09-09T14:44:00;26.30;29.40
18287;DHT22;9269;50.838;12.094;2022-09-09T14:46:29;26.40;28.60
18287;DHT22;9269;50.838;12.094;2022-09-09T14:49:02;26.20;29.20
18287;DHT22;9269;50.838;12.094;2022-09-09T14:51:32;26.30;29.60
18287;DHT22;9269;50.838;12.094;2022-09-09T14:54:13;26.30;29.70
18287;DHT22;9269;50.838;12.094;2022-09-09T14:56:42;26.30;29.20
18287;DHT22;9269;50.838;12.094;2022-09-09T14:59:11;26.50;28.40
18287;DHT22;9269;50.838;12.094;2022-09-09T15:01:41;26.60;28.10
18287;DHT22;9269;50.838;12.094;2022-09-09T15:04:13;26.80;28.20
18287;DHT22;9269;50.838;12.094;2022-09-09T15:06:44;26.90;28.20
18287;DHT22;9269;50.838;12.094;2022-09-09T15:09:15;26.90;27.80
18287;DHT22;9269;50.838;12.094;2022-09-09T15:11:48;26.80;27.10
18287;DHT22;9269;50.838;12.094;2022-09-09T15:14:18;26.80;27.80
18287;DHT22;9269;50.838;12.094;2022-09-09T15:16:52;26.80;27.70
18287;DHT22;9269;50.838;12.094;2022-09-09T15:19:23;26.70;27.70
18287;DHT22;9269;50.838;12.094;2022-09-09T15:21:53;26.70;27.80
18287;DHT22;9269;50.838;12.094;2022-09-09T15:24:24;26.80;28.00
18287;DHT22;9269;50.838;12.094;2022-09-09T15:26:54;26.80;28.00
18287;DHT22;9269;50.838;12.094;2022-09-09T15:29:24;26.70;27.80
18287;DHT22;9269;50.838;12.094;2022-09-09T15:32:02;26.70;28.10
18287;DHT22;9269;50.838;12.094;2022-09-09T15:34:33;26.60;27.80
18287;DHT22;9269;50.838;12.094;2022-09-09T15:37:10;26.60;28.10
18287;DHT22;9269;50.838;12.094;2022-09-09T15:39:42;26.60;27.80
18287;DHT22;9269;50.838;12.094;2022-09-09T15:42:11;26.30;28.10
18287;DHT22;9269;50.838;12.094;2022-09-09T15:44:41;26.50;27.80
18287;DHT22;9269;50.838;12.094;2022-09-09T15:47:11;26.20;27.80
18287;DHT22;9269;50.838;12.094;2022-09-09T15:49:42;26.20;27.40
18287;DHT22;9269;50.838;12.094;2022-09-09T15:52:12;26.10;28.10
18287;DHT22;9269;50.838;12.094;2022-09-09T15:54:49;26.00;28.20
18287;DHT22;9269;50.838;12.094;2022-09-09T15:57:20;25.90;28.60
18287;DHT22;9269;50.838;12.094;2022-09-09T15:59:53;25.90;28.60
18287;DHT22;9269;50.838;12.094;2022-09-09T16:02:24;25.70;28.60
18287;DHT22;9269;50.838;12.094;2022-09-09T16:04:56;25.70;28.60
18287;DHT22;9269;50.838;12.094;2022-09-09T16:07:25;25.60;28.80
18287;DHT22;9269;50.838;12.094;2022-09-09T16:09:54;25.60;29.20
18287;DHT22;9269;50.838;12.094;2022-09-09T16:12:23;25.60;29.20
18287;DHT22;9269;50.838;12.094;2022-09-09T16:14:54;25.60;29.50
18287;DHT22;9269;50.838;12.094;2022-09-09T16:17:23;25.40;29.50
18287;DHT22;9269;50.838;12.094;2022-09-09T16:19:53;25.40;29.70
18287;DHT22;9269;50.838;12.094;2022-09-09T16:22:31;25.30;29.70
18287;DHT22;9269;50.838;12.094;2022-09-09T16:25:15;25.20;29.90
18287;DHT22;9269;50.838;12.094;2022-09-09T16:27:46;25.10;29.90